Time;durP1;ratioP1;P1;durP2;ratioP2;P2;SDS_P1;SDS_P2;PMS_P1;PMS_P2;Temp;Humidity;BMP_temperature;BMP_pressure;BME280_temperature;BME280_humidity;BME280_pressure;Samples;Min_cycle;Max_cycle;Signal;HPM_P1;HPM_P2
2022/04/29 00:00:34;;;;;;;8.50;6.25;;;8.40;65.70;;;;;;5054418;28;20055;-64
2022/04/29 00:03:00;;;;;;;11.02;7.03;;;8.30;65.60;;;;;;5051210;28;20086;-64
2022/04/29 00:05:26;;;;;;;9.50;6.55;;;8.30;65.50;;;;;;5052716;28;20568;-63
2022/04/29 00:07:52;;;;;;;9.43;6.88;;;8.30;65.60;;;;;;5053256;28;20039;-65
2022/04/29 00:10:18;;;;;;;9.38;7.13;;;8.30;65.50;;;;;;5052933;28;20044;-65
2022/04/29 00:12:48;;;;;;;9.82;7.25;;;8.20;66.60;;;;;;5049464;28;20040;-65
2022/04/29 00:15:15;;;;;;;10.02;7.60;;;8.20;65.90;;;;;;5052229;28;20565;-65
2022/04/29 00:17:41;;;;;;;9.30;7.60;;;8.10;65.70;;;;;;5054967;28;20032;-64
2022/04/29 00:20:09;;;;;;;11.05;8.38;;;8.10;65.80;;;;;;5051029;28;20043;-65
2022/04/29 00:22:35;;;;;;;10.98;8.73;;;8.10;65.90;;;;;;5052391;28;20520;-65
2022/04/29 00:25:01;;;;;;;11.73;8.60;;;8.00;66.60;;;;;;5053982;28;20426;-63
2022/04/29 00:27:26;;;;;;;12.95;9.18;;;8.00;65.90;;;;;;5053778;28;20048;-65
2022/04/29 00:29:52;;;;;;;10.82;8.30;;;8.00;65.90;;;;;;5056632;28;20036;-65
2022/04/29 00:32:18;;;;;;;11.43;8.70;;;7.90;65.90;;;;;;5055216;28;20350;-65
2022/04/29 00:34:43;;;;;;;9.95;8.32;;;7.90;67.00;;;;;;5056899;28;20501;-65
2022/04/29 00:37:10;;;;;;;10.65;7.95;;;7.90;66.20;;;;;;5055330;28;20032;-65
2022/04/29 00:39:36;;;;;;;8.57;7.13;;;7.80;66.10;;;;;;5059193;28;20037;-65
2022/04/29 00:42:17;;;;;;;9.65;7.50;;;7.80;66.20;;;;;;5055878;28;20052;-63
2022/04/29 00:44:44;;;;;;;9.25;7.20;;;7.80;67.00;;;;;;5059099;28;20405;-65
2022/04/29 00:47:13;;;;;;;10.10;7.57;;;7.70;66.30;;;;;;5055341;28;20497;-65
2022/04/29 00:49:40;;;;;;;11.98;7.95;;;7.70;66.60;;;;;;5057797;28;20044;-65
2022/04/29 00:52:09;;;;;;;9.35;7.78;;;7.60;66.60;;;;;;5056416;28;20064;-65
2022/04/29 00:54:37;;;;;;;9.85;7.90;;;7.60;66.90;;;;;;5057910;28;20044;-65
2022/04/29 00:57:07;;;;;;;10.43;7.72;;;7.60;67.10;;;;;;5057553;28;20527;-65
2022/04/29 00:59:42;;;;;;;8.90;7.05;;;7.60;67.40;;;;;;5052323;28;20421;-65
2022/04/29 01:02:09;;;;;;;9.23;6.72;;;7.50;67.70;;;;;;5056572;28;20036;-65
2022/04/29 01:04:45;;;;;;;8.30;6.95;;;7.50;67.40;;;;;;5057838;28;20148;-65
2022/04/29 01:07:11;;;;;;;7.20;6.40;;;7.50;67.60;;;;;;5053372;28;20097;-65
2022/04/29 01:09:37;;;;;;;6.88;6.18;;;7.50;67.10;;;;;;5056500;28;20391;-65
2022/04/29 01:12:03;;;;;;;9.32;6.40;;;7.50;67.10;;;;;;5053857;28;20037;-65
2022/04/29 01:14:28;;;;;;;8.35;5.95;;;7.40;67.10;;;;;;5057063;28;20112;-65
2022/04/29 01:16:58;;;;;;;8.77;5.68;;;7.40;67.20;;;;;;5056701;28;20037;-65
2022/04/29 01:19:24;;;;;;;8.43;6.60;;;7.40;67.30;;;;;;5055824;28;20441;-65
2022/04/29 01:21:51;;;;;;;8.77;6.30;;;7.30;67.50;;;;;;5057439;28;20032;-65
2022/04/29 01:24:16;;;;;;;6.35;5.72;;;7.20;67.60;;;;;;5055901;28;20505;-65
2022/04/29 01:26:42;;;;;;;7.90;6.28;;;7.20;67.80;;;;;;5055377;28;20054;-63
2022/04/29 01:29:08;;;;;;;9.65;6.10;;;7.20;68.10;;;;;;5055228;28;20090;-64
2022/04/29 01:31:35;;;;;;;7.35;6.18;;;7.10;68.30;;;;;;5057440;28;20253;-65
2022/04/29 01:34:01;;;;;;;6.53;5.53;;;7.00;68.40;;;;;;5055206;28;20041;-65
2022/04/29 01:36:28;;;;;;;7.35;6.40;;;7.00;68.40;;;;;;5055513;28;20055;-65
2022/04/29 01:38:54;;;;;;;8.68;6.35;;;7.00;68.40;;;;;;5055431;28;20036;-65
2022/04/29 01:41:19;;;;;;;8.00;5.95;;;6.90;68.40;;;;;;5054187;28;20413;-65
2022/04/29 01:43:46;;;;;;;9.52;6.13;;;7.00;68.60;;;;;;5057572;28;20108;-65
2022/04/29 01:46:12;;;;;;;6.90;5.70;;;7.00;68.60;;;;;;5054500;28;20037;-65
2022/04/29 01:48:38;;;;;;;8.63;6.07;;;7.00;68.60;;;;;;5056894;28;20032;-64
2022/04/29 01:51:06;;;;;;;11.32;7.35;;;6.90;68.50;;;;;;5054337;28;20127;-65
2022/04/29 01:53:32;;;;;;;10.38;7.13;;;7.00;68.50;;;;;;5055391;28;20609;-65
2022/04/29 01:55:58;;;;;;;11.82;7.25;;;7.00;68.40;;;;;;5056265;28;20585;-65
2022/04/29 01:58:24;;;;;;;12.20;8.30;;;6.90;68.10;;;;;;5054546;28;20123;-63
2022/04/29 02:00:49;;;;;;;12.20;8.02;;;6.90;68.30;;;;;;5055203;28;20043;-64
2022/04/29 02:03:15;;;;;;;12.73;7.57;;;6.90;68.60;;;;;;5055179;28;20043;-65
2022/04/29 02:05:40;;;;;;;10.55;7.18;;;6.80;68.50;;;;;;5056356;28;20036;-65
2022/04/29 02:08:07;;;;;;;9.52;7.28;;;6.80;68.60;;;;;;5054602;28;20037;-65
2022/04/29 02:10:33;;;;;;;10.77;6.80;;;6.70;68.60;;;;;;5054483;28;20056;-65
2022/04/29 02:12:58;;;;;;;8.18;5.93;;;6.70;68.60;;;;;;5052431;28;20535;-64
2022/04/29 02:15:24;;;;;;;8.20;6.47;;;6.60;68.60;;;;;;5056379;28;20056;-65
2022/04/29 02:17:50;;;;;;;10.02;6.20;;;6.70;68.60;;;;;;5053355;28;20037;-64
2022/04/29 02:20:15;;;;;;;9.45;6.40;;;6.70;68.60;;;;;;5054366;28;20041;-65
2022/04/29 02:22:41;;;;;;;7.35;6.20;;;6.60;68.70;;;;;;5056057;28;20033;-65
2022/04/29 02:25:08;;;;;;;8.50;6.40;;;6.60;69.60;;;;;;5056331;28;20033;-65
2022/04/29 02:27:35;;;;;;;6.43;5.78;;;6.50;68.90;;;;;;5054157;28;20548;-65
2022/04/29 02:30:02;;;;;;;8.30;6.03;;;6.50;68.90;;;;;;5054441;28;20120;-65
2022/04/29 02:32:27;;;;;;;7.65;5.80;;;6.50;69.00;;;;;;5052930;28;22804;-65
2022/04/29 02:34:53;;;;;;;8.48;6.40;;;6.50;69.10;;;;;;5053522;28;22401;-65
2022/04/29 02:37:18;;;;;;;7.38;5.65;;;6.50;69.00;;;;;;5054668;28;20037;-65
2022/04/29 02:39:44;;;;;;;8.27;6.05;;;6.40;69.00;;;;;;5052823;28;20037;-65
2022/04/29 02:42:10;;;;;;;8.73;6.40;;;6.40;69.00;;;;;;5053934;28;20039;-63
2022/04/29 02:44:36;;;;;;;8.40;6.18;;;6.40;69.00;;;;;;5053377;28;20037;-65
2022/04/29 02:47:08;;;;;;;7.40;6.60;;;6.40;69.10;;;;;;5056049;28;20036;-64
2022/04/29 02:49:44;;;;;;;8.18;6.20;;;6.40;69.20;;;;;;5050772;28;20670;-64
2022/04/29 02:52:12;;;;;;;10.77;6.32;;;6.30;69.60;;;;;;5053173;28;20537;-64
2022/04/29 02:54:38;;;;;;;8.10;6.18;;;6.30;69.00;;;;;;5051120;28;20036;-64
2022/04/29 02:57:04;;;;;;;8.63;6.88;;;6.30;69.00;;;;;;5055689;28;20060;-65
2022/04/29 02:59:30;;;;;;;8.23;6.55;;;6.30;69.00;;;;;;5050776;28;20674;-64
2022/04/29 03:01:55;;;;;;;8.52;7.10;;;6.20;69.10;;;;;;5056386;28;20056;-65
2022/04/29 03:04:21;;;;;;;9.70;6.80;;;6.20;69.20;;;;;;5051994;28;20465;-65
2022/04/29 03:06:47;;;;;;;9.13;6.93;;;6.20;69.30;;;;;;5054274;28;20057;-66
2022/04/29 03:09:12;;;;;;;8.20;6.90;;;6.10;69.30;;;;;;5052699;28;20504;-65
2022/04/29 03:11:39;;;;;;;9.50;7.10;;;6.10;69.40;;;;;;5050520;28;20044;-64
2022/04/29 03:14:05;;;;;;;11.05;6.93;;;6.10;69.40;;;;;;5053801;28;20557;-64
2022/04/29 03:16:31;;;;;;;7.88;6.80;;;6.00;69.30;;;;;;5054635;28;20672;-65
2022/04/29 03:18:56;;;;;;;7.43;6.63;;;6.00;69.50;;;;;;5055891;28;20584;-64
2022/04/29 03:21:23;;;;;;;10.32;6.72;;;6.00;69.40;;;;;;5053076;28;20060;-65
2022/04/29 03:23:49;;;;;;;9.00;7.07;;;5.90;69.50;;;;;;5054913;28;21030;-64
2022/04/29 03:26:15;;;;;;;10.70;8.27;;;5.90;69.60;;;;;;5053118;28;20028;-64
2022/04/29 03:28:41;;;;;;;13.27;9.70;;;5.90;69.50;;;;;;5056241;28;20033;-64
2022/04/29 03:31:07;;;;;;;16.85;10.30;;;5.90;69.60;;;;;;5053817;28;20033;-65
2022/04/29 03:33:33;;;;;;;13.00;9.55;;;5.80;69.70;;;;;;5056481;28;20059;-65
2022/04/29 03:35:59;;;;;;;14.45;9.73;;;5.80;69.80;;;;;;5054410;28;20466;-64
2022/04/29 03:38:25;;;;;;;12.95;8.73;;;5.80;69.90;;;;;;5053884;28;20120;-63
2022/04/29 03:40:55;;;;;;;9.48;7.60;;;5.80;70.00;;;;;;5053740;28;20560;-64
2022/04/29 03:43:21;;;;;;;10.25;8.18;;;5.80;70.00;;;;;;5055376;28;20040;-64
2022/04/29 03:45:47;;;;;;;11.75;7.68;;;5.80;70.00;;;;;;5054441;28;20044;-65
2022/04/29 03:48:13;;;;;;;9.85;7.95;;;5.80;69.80;;;;;;5057421;28;20085;-64
2022/04/29 03:50:39;;;;;;;12.73;8.10;;;5.80;70.60;;;;;;5054507;28;20513;-65
2022/04/29 03:53:06;;;;;;;9.60;7.95;;;5.70;69.80;;;;;;5055162;28;20033;-65
2022/04/29 03:55:33;;;;;;;9.23;7.82;;;5.70;70.00;;;;;;5052366;28;20600;-65
2022/04/29 03:58:02;;;;;;;11.98;8.02;;;5.70;69.90;;;;;;5054849;28;20033;-65
2022/04/29 04:00:32;;;;;;;11.45;8.85;;;5.70;70.00;;;;;;5054762;28;20086;-64
2022/04/29 04:03:05;;;;;;;11.18;8.13;;;5.60;70.00;;;;;;5053255;28;20024;-64
2022/04/29 04:05:32;;;;;;;11.68;7.97;;;5.60;70.30;;;;;;5056271;28;20037;-65
2022/04/29 04:07:57;;;;;;;11.70;8.77;;;5.60;70.10;;;;;;5058481;28;20112;-65
2022/04/29 04:10:23;;;;;;;12.57;8.95;;;5.60;70.10;;;;;;5059088;28;20646;-64
2022/04/29 04:12:50;;;;;;;12.35;9.45;;;5.60;70.20;;;;;;5060544;28;20033;-65
2022/04/29 04:15:18;;;;;;;13.68;9.75;;;5.50;70.30;;;;;;5054847;28;20025;-65
2022/04/29 04:17:45;;;;;;;13.70;9.30;;;5.50;70.30;;;;;;5057615;28;20115;-65
2022/04/29 04:20:12;;;;;;;15.75;9.43;;;5.50;70.60;;;;;;5057905;28;20119;-64
2022/04/29 04:22:38;;;;;;;11.07;8.68;;;5.50;70.60;;;;;;5059176;28;20578;-64
2022/04/29 04:25:04;;;;;;;11.15;8.93;;;5.50;71.50;;;;;;5058309;28;20159;-64
2022/04/29 04:27:30;;;;;;;12.57;9.45;;;5.50;70.70;;;;;;5056005;28;20032;-64
2022/04/29 04:29:57;;;;;;;18.20;9.70;;;5.50;70.80;;;;;;5057332;28;20028;-64
2022/04/29 04:32:23;;;;;;;15.57;9.90;;;5.50;71.00;;;;;;5054975;28;20032;-65
2022/04/29 04:34:52;;;;;;;14.25;10.07;;;5.50;71.10;;;;;;5046143;28;20153;-65
2022/04/29 04:37:22;;;;;;;14.63;9.68;;;5.50;71.30;;;;;;5054848;28;20039;-65
2022/04/29 04:39:49;;;;;;;11.40;9.18;;;5.40;71.30;;;;;;5054222;28;20174;-65
2022/04/29 04:42:15;;;;;;;10.98;9.10;;;5.40;71.50;;;;;;5057757;28;20033;-64
2022/04/29 04:44:41;;;;;;;14.60;10.48;;;5.40;71.80;;;;;;5058092;28;20040;-64
2022/04/29 04:47:08;;;;;;;12.45;9.63;;;5.40;72.00;;;;;;5053726;28;20091;-64
2022/04/29 04:49:34;;;;;;;16.70;9.95;;;5.40;72.20;;;;;;5057105;28;20351;-63
2022/04/29 04:52:00;;;;;;;13.43;9.52;;;5.40;72.30;;;;;;5057399;28;20036;-66
2022/04/29 04:54:26;;;;;;;14.35;10.15;;;5.50;72.40;;;;;;5056949;28;20036;-65
2022/04/29 04:56:53;;;;;;;13.98;10.40;;;5.50;72.50;;;;;;5058588;28;20588;-65
2022/04/29 04:59:19;;;;;;;21.80;12.48;;;5.50;72.40;;;;;;5058108;28;20131;-65
2022/04/29 05:01:44;;;;;;;20.88;12.43;;;5.50;72.40;;;;;;5057879;28;20037;-65
2022/04/29 05:04:10;;;;;;;18.75;12.90;;;5.60;72.50;;;;;;5058369;28;20482;-64
2022/04/29 05:06:38;;;;;;;19.50;13.25;;;5.60;72.60;;;;;;5056628;28;20029;-64
2022/04/29 05:09:05;;;;;;;21.88;12.57;;;5.70;72.70;;;;;;5056906;28;20035;-65
2022/04/29 05:11:31;;;;;;;18.33;12.00;;;5.70;72.70;;;;;;5057138;28;20043;-65
2022/04/29 05:13:57;;;;;;;18.85;12.77;;;5.80;72.70;;;;;;5057571;28;20074;-65
2022/04/29 05:16:24;;;;;;;15.10;11.73;;;5.80;72.90;;;;;;5055051;28;20496;-64
2022/04/29 05:18:49;;;;;;;16.85;12.02;;;5.80;73.00;;;;;;5059231;28;20037;-65
2022/04/29 05:21:15;;;;;;;19.52;11.93;;;5.90;73.10;;;;;;5057091;28;20025;-65
2022/04/29 05:23:41;;;;;;;17.45;11.98;;;6.00;73.40;;;;;;5058265;28;20963;-64
2022/04/29 05:26:07;;;;;;;22.00;12.63;;;6.10;73.60;;;;;;5058161;28;20102;-66
2022/04/29 05:28:33;;;;;;;21.45;12.27;;;6.10;73.50;;;;;;5056802;28;20521;-67
2022/04/29 05:30:59;;;;;;;24.17;13.60;;;6.20;73.60;;;;;;5058709;28;20501;-67
2022/04/29 05:33:25;;;;;;;21.38;14.30;;;6.30;73.70;;;;;;5059910;28;20077;-66
2022/04/29 05:35:51;;;;;;;21.33;13.60;;;6.30;73.80;;;;;;5055817;28;20037;-67
2022/04/29 05:38:17;;;;;;;23.30;13.75;;;6.40;73.80;;;;;;5059065;28;20037;-67
2022/04/29 05:43:34;;;;;;;20.88;13.38;;;6.50;73.70;;;;;;5041209;28;20040;-65
2022/04/29 05:46:00;;;;;;;21.35;12.73;;;6.60;73.90;;;;;;5057098;28;20029;-64
2022/04/29 05:48:26;;;;;;;18.08;12.75;;;6.70;74.40;;;;;;5058625;28;20040;-65
2022/04/29 05:50:51;;;;;;;19.98;13.07;;;6.80;74.40;;;;;;5054437;28;20048;-65
2022/04/29 05:53:17;;;;;;;17.83;13.40;;;6.90;74.50;;;;;;5057107;28;20040;-65
2022/04/29 05:55:43;;;;;;;17.80;13.13;;;7.00;74.60;;;;;;5057137;28;20064;-64
2022/04/29 05:58:08;;;;;;;19.45;12.85;;;7.10;74.60;;;;;;5057716;28;20072;-64
2022/04/29 06:00:35;;;;;;;17.95;12.77;;;7.20;74.70;;;;;;5056522;28;20028;-64
2022/04/29 06:03:01;;;;;;;17.40;12.43;;;7.30;74.60;;;;;;5056403;28;20032;-64
2022/04/29 06:05:27;;;;;;;15.05;11.90;;;7.40;74.40;;;;;;5058767;28;20091;-65
2022/04/29 06:07:53;;;;;;;15.13;11.63;;;7.50;74.20;;;;;;5055567;28;20033;-65
2022/04/29 06:10:19;;;;;;;15.23;11.98;;;7.60;74.00;;;;;;5055400;28;20052;-64
2022/04/29 06:12:46;;;;;;;16.73;11.60;;;7.70;73.90;;;;;;5054177;28;20063;-64
2022/04/29 06:15:16;;;;;;;17.30;12.70;;;7.80;73.90;;;;;;5054487;28;20052;-65
2022/04/29 06:17:43;;;;;;;14.10;12.13;;;7.90;74.00;;;;;;5056373;28;20529;-65
2022/04/29 06:20:10;;;;;;;16.50;12.05;;;8.00;73.70;;;;;;5055568;28;20061;-65
2022/04/29 06:22:42;;;;;;;16.70;12.07;;;8.10;73.70;;;;;;5055605;28;20043;-65
2022/04/29 06:25:08;;;;;;;14.65;12.00;;;8.20;73.90;;;;;;5057065;28;20025;-65
2022/04/29 06:27:34;;;;;;;14.13;11.73;;;8.30;73.30;;;;;;5057564;28;20029;-64
2022/04/29 06:29:59;;;;;;;16.52;11.82;;;8.40;73.30;;;;;;5056682;28;20041;-64
2022/04/29 06:32:25;;;;;;;18.08;12.02;;;8.50;73.20;;;;;;5054805;28;20580;-64
2022/04/29 06:34:51;;;;;;;18.33;12.18;;;8.60;72.90;;;;;;5057989;28;20040;-64
2022/04/29 06:37:20;;;;;;;14.25;11.40;;;8.70;72.80;;;;;;5057661;28;20103;-65
2022/04/29 06:39:46;;;;;;;16.65;12.23;;;8.80;72.50;;;;;;5054439;28;20024;-65
2022/04/29 06:42:11;;;;;;;14.88;11.15;;;8.90;72.50;;;;;;5056052;28;20059;-65
2022/04/29 06:44:37;;;;;;;18.85;11.25;;;8.90;72.20;;;;;;5057289;28;20029;-64
2022/04/29 06:47:03;;;;;;;14.57;11.20;;;9.00;72.10;;;;;;5057022;28;20033;-65
2022/04/29 06:49:29;;;;;;;15.10;11.90;;;9.10;71.80;;;;;;5054688;28;20044;-65
2022/04/29 06:51:55;;;;;;;13.63;10.98;;;9.20;71.80;;;;;;5057172;28;20123;-65
2022/04/29 06:54:21;;;;;;;13.27;10.80;;;9.30;71.50;;;;;;5054868;28;20138;-65
2022/04/29 06:56:46;;;;;;;20.58;12.10;;;9.30;71.70;;;;;;5057122;28;20545;-65
2022/04/29 06:59:12;;;;;;;12.15;10.40;;;9.40;71.90;;;;;;5053990;28;20040;-65
2022/04/29 07:01:38;;;;;;;12.60;10.35;;;9.50;71.50;;;;;;5053969;28;20033;-64
2022/04/29 07:04:04;;;;;;;11.75;10.43;;;9.60;71.60;;;;;;5054908;28;20079;-65
2022/04/29 07:06:31;;;;;;;13.43;11.13;;;9.70;71.50;;;;;;5053340;28;20487;-65
2022/04/29 07:08:57;;;;;;;11.93;10.00;;;9.80;71.70;;;;;;5053904;28;20094;-64
2022/04/29 07:11:25;;;;;;;13.55;10.27;;;9.90;71.60;;;;;;5054517;28;20033;-65
2022/04/29 07:13:52;;;;;;;11.95;10.48;;;10.00;71.60;;;;;;5057432;28;20056;-65
2022/04/29 07:16:18;;;;;;;13.13;11.35;;;10.10;72.00;;;;;;5051959;28;20456;-64
2022/04/29 07:18:44;;;;;;;12.00;10.27;;;10.20;71.80;;;;;;5054059;28;20037;-65
2022/04/29 07:21:10;;;;;;;11.68;10.45;;;10.30;71.40;;;;;;5054251;28;20544;-64
2022/04/29 07:23:36;;;;;;;13.07;10.48;;;10.40;71.30;;;;;;5054542;28;20622;-65
2022/04/29 07:26:02;;;;;;;11.88;10.43;;;10.50;71.10;;;;;;5056382;28;20032;-65
2022/04/29 07:28:27;;;;;;;14.10;10.63;;;10.70;71.30;;;;;;5054105;28;20465;-64
2022/04/29 07:30:53;;;;;;;13.77;11.15;;;10.80;71.20;;;;;;5055475;28;20086;-65
2022/04/29 07:33:19;;;;;;;11.75;10.40;;;10.90;71.30;;;;;;5055018;28;20040;-65
2022/04/29 07:44:06;;;;;;;12.73;10.25;;;11.50;70.00;;;;;;5058845;28;20580;-65
2022/04/29 07:46:32;;;;;;;13.63;9.63;;;11.60;69.90;;;;;;5058972;28;20068;-64
2022/04/29 07:48:58;;;;;;;11.35;9.75;;;11.80;69.70;;;;;;5059780;28;20094;-64
2022/04/29 07:51:24;;;;;;;12.25;9.60;;;11.90;69.50;;;;;;5059695;28;20032;-65
2022/04/29 07:53:49;;;;;;;11.38;9.60;;;12.10;69.50;;;;;;5060166;28;20043;-65
2022/04/29 07:56:15;;;;;;;10.65;9.55;;;12.20;68.80;;;;;;5060178;28;20059;-65
2022/04/29 07:58:42;;;;;;;10.88;9.48;;;12.30;68.40;;;;;;5059563;28;20036;-65
2022/04/29 08:01:09;;;;;;;9.35;8.45;;;12.40;68.30;;;;;;5061172;28;20460;-65
2022/04/29 08:03:36;;;;;;;9.57;8.55;;;12.60;68.00;;;;;;5055360;28;20029;-63
2022/04/29 08:06:06;;;;;;;11.63;8.43;;;12.70;67.70;;;;;;5059714;28;20032;-65
2022/04/29 08:08:33;;;;;;;9.93;7.60;;;12.80;67.40;;;;;;5058447;28;20119;-65
2022/04/29 08:11:00;;;;;;;6.72;5.88;;;13.00;67.30;;;;;;5058599;28;20064;-65
2022/04/29 08:13:27;;;;;;;5.05;4.53;;;13.10;66.50;;;;;;5059632;28;20036;-66
2022/04/29 08:15:53;;;;;;;4.63;4.18;;;13.30;65.70;;;;;;5060243;28;20037;-65
2022/04/29 08:18:19;;;;;;;4.78;4.07;;;13.40;64.10;;;;;;5059010;28;20044;-65
2022/04/29 08:20:45;;;;;;;4.68;4.28;;;13.60;63.40;;;;;;5060470;28;20501;-65
2022/04/29 08:23:10;;;;;;;4.63;4.22;;;13.80;62.60;;;;;;5059611;28;20605;-65
2022/04/29 08:25:36;;;;;;;4.75;4.30;;;13.90;62.00;;;;;;5059449;28;20186;-65
2022/04/29 08:28:03;;;;;;;4.53;3.83;;;14.10;61.30;;;;;;5059351;28;20952;-65
2022/04/29 08:30:30;;;;;;;4.43;4.05;;;14.30;60.70;;;;;;5075921;28;20071;-65
2022/04/29 08:32:57;;;;;;;4.10;3.75;;;14.50;59.90;;;;;;5059046;28;20037;-66
2022/04/29 08:35:24;;;;;;;4.20;3.80;;;14.60;59.10;;;;;;5058910;28;20056;-66
2022/04/29 08:37:50;;;;;;;6.07;3.60;;;14.80;58.80;;;;;;5061645;28;20035;-65
2022/04/29 08:40:16;;;;;;;3.53;3.22;;;14.90;58.30;;;;;;5059184;28;20029;-65
2022/04/29 08:42:43;;;;;;;3.63;3.33;;;15.10;57.80;;;;;;5059607;28;20516;-65
2022/04/29 08:45:11;;;;;;;3.65;3.35;;;15.20;57.20;;;;;;5060826;28;20115;-64
2022/04/29 08:47:39;;;;;;;3.50;3.20;;;15.40;56.30;;;;;;5060216;28;20037;-65
2022/04/29 08:50:07;;;;;;;5.18;2.85;;;15.50;55.90;;;;;;5057569;28;20033;-64
2022/04/29 08:52:36;;;;;;;2.92;2.47;;;15.60;55.40;;;;;;5058572;28;20041;-65
2022/04/29 09:00:41;;;;;;;2.35;2.22;;;15.90;54.50;;;;;;5060471;28;20035;-65
2022/04/29 09:03:14;;;;;;;2.95;2.50;;;16.10;54.20;;;;;;5056004;28;20155;-65
2022/04/29 09:05:41;;;;;;;2.92;2.22;;;16.20;53.10;;;;;;5057729;28;20039;-65
2022/04/29 09:08:07;;;;;;;2.88;2.35;;;16.30;53.10;;;;;;5060979;28;20486;-65
2022/04/29 09:10:35;;;;;;;3.25;2.50;;;16.40;52.80;;;;;;5056759;28;20029;-65
2022/04/29 09:13:19;;;;;;;3.20;2.47;;;16.50;50.70;;;;;;5059374;28;20025;-65
2022/04/29 09:15:59;;;;;;;3.08;2.75;;;16.70;50.00;;;;;;5058665;28;20048;-66
2022/04/29 09:18:37;;;;;;;3.03;2.50;;;16.80;50.20;;;;;;5055780;28;20103;-65
2022/04/29 09:21:04;;;;;;;2.50;2.20;;;16.90;50.90;;;;;;5059219;28;20064;-66
2022/04/29 09:23:31;;;;;;;3.55;2.30;;;17.00;51.10;;;;;;5058985;28;20032;-65
2022/04/29 09:25:59;;;;;;;3.17;2.88;;;17.10;50.90;;;;;;5058553;28;20405;-65
2022/04/29 09:28:25;;;;;;;2.85;2.65;;;17.20;50.40;;;;;;5059930;28;20047;-65
2022/04/29 09:30:58;;;;;;;3.65;2.72;;;17.40;50.70;;;;;;5058798;28;20044;-66
2022/04/29 09:33:26;;;;;;;3.10;2.90;;;17.50;49.80;;;;;;5058482;28;20033;-66
2022/04/29 09:35:53;;;;;;;4.45;3.00;;;17.60;49.80;;;;;;5060101;28;20560;-66
2022/04/29 09:41:06;;;;;;;3.95;3.10;;;17.90;50.80;;;;;;5061659;28;20051;-66
2022/04/29 09:43:38;;;;;;;3.50;2.95;;;17.90;49.50;;;;;;5059899;28;20028;-65
2022/04/29 09:46:23;;;;;;;4.63;2.80;;;18.10;48.70;;;;;;5061015;28;20029;-65
2022/04/29 09:48:54;;;;;;;;;;;18.10;48.00;;;;;;5056707;28;21155;-66
2022/04/29 09:51:39;;;;;;;2.53;2.33;;;18.20;50.80;;;;;;5058574;28;20019;-66
2022/04/29 09:54:11;;;;;;;4.77;2.13;;;18.30;47.50;;;;;;5058664;28;20037;-65
2022/04/29 09:56:37;;;;;;;3.75;2.20;;;18.30;47.80;;;;;;5056644;28;20040;-66
2022/04/29 09:59:03;;;;;;;2.13;1.92;;;18.30;47.60;;;;;;5057288;28;20035;-66
2022/04/29 10:01:29;;;;;;;3.38;2.10;;;18.40;47.10;;;;;;5056174;28;20025;-65
2022/04/29 10:03:56;;;;;;;2.92;2.10;;;18.50;46.80;;;;;;5056744;28;20056;-65
2022/04/29 10:06:24;;;;;;;2.45;2.15;;;18.40;46.40;;;;;;5058249;28;20714;-66
2022/04/29 10:08:51;;;;;;;3.40;2.30;;;18.40;45.90;;;;;;5058788;28;20422;-66
2022/04/29 10:11:21;;;;;;;2.65;2.45;;;18.40;46.20;;;;;;5055641;28;20025;-66
2022/04/29 10:13:48;;;;;;;2.60;2.40;;;18.50;46.30;;;;;;5057976;28;20025;-65
2022/04/29 10:16:15;;;;;;;3.20;2.55;;;18.50;46.50;;;;;;5057083;28;20032;-66
2022/04/29 10:21:36;;;;;;;2.78;2.50;;;18.50;46.30;;;;;;5057513;28;20047;-65
2022/04/29 10:24:01;;;;;;;4.00;2.65;;;18.60;46.70;;;;;;5056273;28;20036;-65
2022/04/29 10:26:27;;;;;;;3.13;2.67;;;18.60;46.70;;;;;;5057792;28;20037;-64
2022/04/29 10:28:53;;;;;;;3.40;3.10;;;18.70;46.70;;;;;;5056463;28;20576;-66
2022/04/29 10:31:21;;;;;;;3.10;2.90;;;18.80;46.80;;;;;;5057084;28;20593;-66
2022/04/29 10:33:47;;;;;;;3.75;3.45;;;18.80;46.00;;;;;;5055649;28;20036;-66
2022/04/29 10:36:14;;;;;;;3.80;3.40;;;18.80;46.00;;;;;;5058241;28;20539;-66
2022/04/29 10:38:43;;;;;;;3.17;2.92;;;18.90;45.70;;;;;;5055854;28;20024;-64
2022/04/29 10:41:15;;;;;;;4.43;2.97;;;18.90;46.20;;;;;;5057921;28;20090;-65
2022/04/29 10:43:52;;;;;;;3.40;3.10;;;19.00;45.90;;;;;;5057100;28;20116;-65
2022/04/29 10:46:30;;;;;;;3.47;3.17;;;19.00;44.60;;;;;;5056707;28;20119;-66
2022/04/29 10:48:56;;;;;;;3.03;2.83;;;19.00;44.50;;;;;;5056295;28;20036;-65
2022/04/29 10:51:27;;;;;;;3.95;3.55;;;19.00;45.40;;;;;;5057832;28;20498;-66
2022/04/29 10:53:57;;;;;;;3.60;3.30;;;19.10;44.90;;;;;;5054172;28;20059;-66
2022/04/29 10:56:32;;;;;;;3.78;3.40;;;19.10;44.80;;;;;;5056086;28;20031;-65
2022/04/29 10:59:03;;;;;;;4.82;3.25;;;19.20;44.40;;;;;;5054055;28;20555;-66
2022/04/29 11:01:36;;;;;;;3.83;3.38;;;19.30;44.20;;;;;;5057590;28;20029;-65
2022/04/29 11:04:14;;;;;;;3.28;2.95;;;19.30;44.90;;;;;;5055501;28;20025;-66
2022/04/29 11:06:44;;;;;;;4.22;3.35;;;19.30;44.40;;;;;;5055299;28;20029;-65
2022/04/29 11:09:24;;;;;;;3.30;2.80;;;19.40;44.20;;;;;;5055271;28;20148;-65
2022/04/29 11:11:51;;;;;;;3.83;3.40;;;19.50;43.90;;;;;;5054979;28;20056;-65
2022/04/29 11:14:17;;;;;;;4.78;3.70;;;19.50;44.30;;;;;;5057168;28;20620;-64
2022/04/29 11:16:53;;;;;;;4.00;3.58;;;19.60;44.10;;;;;;5056685;28;20116;-65
2022/04/29 11:19:21;;;;;;;3.63;3.15;;;19.60;43.10;;;;;;5057431;28;20448;-66
2022/04/29 11:24:47;;;;;;;3.50;3.25;;;19.70;43.20;;;;;;5053774;28;20079;-66
2022/04/29 11:27:13;;;;;;;3.85;3.47;;;19.80;43.90;;;;;;5057205;28;20435;-66
2022/04/29 11:29:46;;;;;;;5.05;3.70;;;19.90;43.60;;;;;;5055247;28;20040;-65
2022/04/29 11:32:13;;;;;;;3.90;3.42;;;19.90;43.00;;;;;;5057080;28;20044;-65
2022/04/29 11:34:51;;;;;;;4.13;3.47;;;19.90;43.40;;;;;;5053341;28;20059;-65
2022/04/29 11:37:26;;;;;;;4.47;4.00;;;20.00;42.40;;;;;;5051249;28;20041;-67
2022/04/29 11:39:55;;;;;;;4.85;4.38;;;20.10;42.30;;;;;;5054149;28;20064;-66
2022/04/29 11:42:22;;;;;;;5.28;3.72;;;20.10;41.90;;;;;;5056586;28;20061;-66
2022/04/29 11:44:51;;;;;;;4.28;3.67;;;20.10;42.00;;;;;;5051954;28;20075;-65
2022/04/29 11:47:26;;;;;;;4.30;3.90;;;20.00;41.70;;;;;;5053542;28;20532;-66
2022/04/29 11:49:52;;;;;;;3.83;3.42;;;20.00;41.30;;;;;;5055164;28;20044;-66
2022/04/29 11:52:25;;;;;;;5.15;3.88;;;20.00;42.00;;;;;;5054613;28;20124;-66
2022/04/29 11:54:54;;;;;;;5.45;4.45;;;20.00;42.10;;;;;;5051231;28;20036;-66
2022/04/29 11:57:24;;;;;;;5.15;4.65;;;20.00;42.00;;;;;;5051119;28;20056;-66
2022/04/29 11:59:50;;;;;;;5.03;4.50;;;20.10;41.90;;;;;;5053607;28;20114;-66
2022/04/29 12:02:18;;;;;;;5.85;3.90;;;20.10;42.00;;;;;;5054749;28;20056;-66
2022/04/29 12:04:59;;;;;;;8.45;3.88;;;20.20;42.00;;;;;;5050218;28;20048;-65
2022/04/29 12:07:26;;;;;;;4.10;3.33;;;20.20;40.80;;;;;;5056615;28;20529;-66
2022/04/29 12:09:53;;;;;;;5.75;3.83;;;20.30;42.10;;;;;;5055507;28;20044;-66
2022/04/29 12:12:28;;;;;;;5.15;4.25;;;20.30;41.90;;;;;;5050286;28;20039;-66
2022/04/29 12:14:59;;;;;;;4.50;3.85;;;20.30;40.90;;;;;;5056195;28;20414;-67
2022/04/29 12:18:01;;;;;;;3.70;3.38;;;20.40;41.20;;;;;;5057288;28;20036;-66
2022/04/29 12:20:28;;;;;;;5.22;3.85;;;20.40;41.00;;;;;;5042515;28;20540;-66
2022/04/29 12:22:54;;;;;;;5.45;3.58;;;20.40;41.40;;;;;;5055333;28;20068;-66
2022/04/29 12:25:21;;;;;;;6.72;3.75;;;20.50;41.30;;;;;;5056401;28;20029;-66
2022/04/29 12:28:09;;;;;;;4.55;4.15;;;20.50;41.00;;;;;;5058893;28;20040;-67
2022/04/29 12:37:06;;;;;;;4.72;4.32;;;20.60;41.40;;;;;;5017279;28;20331;-66
2022/04/29 12:39:39;;;;;;;5.70;4.60;;;20.60;40.50;;;;;;5006827;28;20405;-65
2022/04/29 12:42:07;;;;;;;4.93;4.28;;;20.60;40.40;;;;;;5056677;28;20252;-67
2022/04/29 12:47:44;;;;;;;5.00;4.30;;;20.60;40.40;;;;;;5055882;28;20416;-66
2022/04/29 12:50:23;;;;;;;7.05;4.28;;;20.70;41.00;;;;;;5057955;28;20052;-66
2022/04/29 12:53:01;;;;;;;5.57;3.70;;;20.70;39.90;;;;;;5062669;28;20040;-66
2022/04/29 12:55:28;;;;;;;4.30;3.90;;;20.80;40.40;;;;;;5058891;28;20041;-66
2022/04/29 12:58:04;;;;;;;3.65;3.30;;;20.80;40.30;;;;;;5065024;28;20083;-67
2022/04/29 13:00:30;;;;;;;3.53;3.10;;;20.80;39.60;;;;;;5046177;28;20114;-67
2022/04/29 13:03:02;;;;;;;3.83;3.15;;;20.90;40.00;;;;;;5053408;28;20029;-66
2022/04/29 13:05:29;;;;;;;3.10;2.70;;;20.90;38.90;;;;;;5048603;28;21690;-66
2022/04/29 13:07:55;;;;;;;4.50;3.20;;;20.90;38.80;;;;;;5052013;28;20032;-66
2022/04/29 13:10:22;;;;;;;5.05;3.10;;;20.90;38.90;;;;;;5058314;28;20037;-66
2022/04/29 13:12:48;;;;;;;2.85;2.65;;;20.90;38.80;;;;;;5052569;28;20033;-66
2022/04/29 13:15:14;;;;;;;4.60;2.78;;;20.90;38.40;;;;;;5050787;28;20093;-66
2022/04/29 13:17:40;;;;;;;3.40;3.10;;;21.00;38.60;;;;;;5053796;28;20033;-66
2022/04/29 13:20:08;;;;;;;4.55;2.80;;;21.00;38.80;;;;;;5055735;28;20036;-66
2022/04/29 13:22:38;;;;;;;5.43;2.75;;;21.00;38.40;;;;;;5070931;28;20505;-67